West Vancouver, Canada
Current Conditions -  °F | °C
As of 2:00 PM on Sunday 21 Dec 2014 (Local Time) from CYVR Reporting Station
Broken Clouds Broken Clouds  
Wind Chill: 50°   Ceiling: 12000
Heat Index: 50°   Visibility: 15mi
Dew Point: 46°   Wind: 5mph
Humidity: 87%   Direction: 90°E
Pressure: 29.92"   Gusts: NA
Location:  49.33°N, 123.16°W
Report Text: CYVR 212200Z 09004KT 15SM FEW020 SCT060 BKN120 BKN240 10/08 A2992 RMK SF1SC3AC1CI2 SLP131
Loading
Personal Weather Stations






























Interactive Weather Map New forecast layout! Learn more

10-Day Weather Forecast

Advertisements
Track Severe Weather on mobile